Time;durP1;ratioP1;P1;durP2;ratioP2;P2;SDS_P1;SDS_P2;PMS_P1;PMS_P2;Temp;Humidity;BMP_temperature;BMP_pressure;BME280_temperature;BME280_humidity;BME280_pressure;Samples;Min_cycle;Max_cycle;Signal;HPM_P1;HPM_P2
2022/05/09 00:00:31;;;;;;;8.00;6.07;;;;;;;;;;8294092;28;20072;-82
2022/05/09 00:04:41;;;;;;;8.85;5.88;;;;;;;;;;8289221;28;20045;-82
2022/05/09 00:08:44;;;;;;;9.85;5.80;;;;;;;;;;8291112;28;20050;-84
2022/05/09 00:12:47;;;;;;;8.13;5.63;;;;;;;;;;8296859;28;20046;-82
2022/05/09 00:16:51;;;;;;;10.20;5.68;;;;;;;;;;8298793;28;20402;-82
2022/05/09 00:20:54;;;;;;;11.73;5.70;;;;;;;;;;8287812;28;20405;-84
2022/05/09 00:25:00;;;;;;;9.20;5.18;;;;;;;;;;8292425;28;20112;-82
2022/05/09 00:29:04;;;;;;;8.40;5.85;;;;;;;;;;8269110;28;20042;-83
2022/05/09 00:33:07;;;;;;;8.02;5.90;;;;;;;;;;8266633;28;20042;-84
2022/05/09 00:37:11;;;;;;;8.13;5.95;;;;;;;;;;8276353;28;20046;-81
2022/05/09 00:45:33;;;;;;;7.97;5.47;;;;;;;;;;8287482;28;20046;-82
2022/05/09 00:49:44;;;;;;;7.28;5.55;;;;;;;;;;8289817;28;20111;-82
2022/05/09 00:53:50;;;;;;;8.07;5.70;;;;;;;;;;8295734;28;20045;-84
2022/05/09 00:58:00;;;;;;;9.13;5.72;;;;;;;;;;8290013;28;20045;-82
2022/05/09 01:02:04;;;;;;;8.75;5.72;;;;;;;;;;8287934;28;20057;-83
2022/05/09 01:06:07;;;;;;;8.57;5.50;;;;;;;;;;8297577;28;20129;-82
2022/05/09 01:10:11;;;;;;;8.75;5.72;;;;;;;;;;8298962;28;20421;-82
2022/05/09 01:14:18;;;;;;;7.75;5.50;;;;;;;;;;8302431;28;20045;-82
2022/05/09 01:18:21;;;;;;;10.55;6.03;;;;;;;;;;8303559;28;20079;-82
2022/05/09 01:22:28;;;;;;;7.80;5.57;;;;;;;;;;8304444;28;20455;-82
2022/05/09 01:26:30;;;;;;;8.30;5.55;;;;;;;;;;8304487;28;20418;-82
2022/05/09 01:30:40;;;;;;;8.52;5.07;;;;;;;;;;8304064;28;20042;-83
2022/05/09 01:34:49;;;;;;;10.60;5.90;;;;;;;;;;8300108;28;20057;-82
2022/05/09 01:38:56;;;;;;;12.02;6.22;;;;;;;;;;8294140;28;20050;-82
2022/05/09 01:42:59;;;;;;;8.40;5.80;;;;;;;;;;8269902;28;20070;-82
2022/05/09 01:51:34;;;;;;;8.75;5.88;;;;;;;;;;8174346;28;20061;-82
2022/05/09 01:55:38;;;;;;;10.32;6.28;;;;;;;;;;8297853;28;20512;-82
2022/05/09 01:59:42;;;;;;;9.40;6.05;;;;;;;;;;8298316;28;20128;-82
2022/05/09 02:03:45;;;;;;;10.18;6.18;;;;;;;;;;8266176;28;20051;-82
2022/05/09 02:07:47;;;;;;;11.48;6.25;;;;;;;;;;8265146;28;20072;-82
2022/05/09 02:11:51;;;;;;;9.63;6.57;;;;;;;;;;8265674;28;20418;-82
2022/05/09 02:15:54;;;;;;;8.95;6.22;;;;;;;;;;8265296;28;20053;-82
2022/05/09 02:19:58;;;;;;;8.93;5.82;;;;;;;;;;8264957;28;20100;-83
2022/05/09 02:24:00;;;;;;;8.27;5.80;;;;;;;;;;8264853;28;20050;-82
2022/05/09 02:28:06;;;;;;;10.82;6.32;;;;;;;;;;8265317;28;20470;-83
2022/05/09 02:32:11;;;;;;;11.25;6.13;;;;;;;;;;8264983;28;20047;-82
2022/05/09 02:36:14;;;;;;;8.38;6.22;;;;;;;;;;8265176;28;20046;-82
2022/05/09 02:40:17;;;;;;;11.38;7.38;;;;;;;;;;8264926;28;20414;-82
2022/05/09 02:44:21;;;;;;;10.00;6.70;;;;;;;;;;8270277;28;20054;-83
2022/05/09 02:48:23;;;;;;;11.18;7.57;;;;;;;;;;8270944;28;20486;-82
2022/05/09 02:52:29;;;;;;;13.63;7.68;;;;;;;;;;8273833;28;20053;-82
2022/05/09 02:56:31;;;;;;;11.90;7.63;;;;;;;;;;8302615;28;20045;-82
2022/05/09 03:00:36;;;;;;;12.60;7.90;;;;;;;;;;8302819;28;20054;-82
2022/05/09 03:04:41;;;;;;;13.77;8.50;;;;;;;;;;8301993;28;20053;-82
2022/05/09 03:08:44;;;;;;;10.85;8.20;;;;;;;;;;8302688;28;20045;-82
2022/05/09 03:12:46;;;;;;;13.55;7.95;;;;;;;;;;8302127;28;20042;-82
2022/05/09 03:16:50;;;;;;;14.48;9.00;;;;;;;;;;8301911;28;20057;-82
2022/05/09 03:20:53;;;;;;;14.80;8.43;;;;;;;;;;8301705;28;20050;-83
2022/05/09 03:24:56;;;;;;;15.85;9.85;;;;;;;;;;8301578;28;20061;-82
2022/05/09 03:28:58;;;;;;;12.85;8.70;;;;;;;;;;8301526;28;20050;-82
2022/05/09 03:33:03;;;;;;;28.58;12.02;;;;;;;;;;8301945;28;20045;-82
2022/05/09 03:37:06;;;;;;;16.17;11.00;;;;;;;;;;8301380;28;20053;-82
2022/05/09 03:41:09;;;;;;;24.85;8.48;;;;;;;;;;8301320;28;20490;-82
2022/05/09 03:45:12;;;;;;;21.92;8.70;;;;;;;;;;8301454;28;20053;-82
2022/05/09 03:49:16;;;;;;;22.80;8.43;;;;;;;;;;8300978;28;20053;-82
2022/05/09 03:53:19;;;;;;;14.27;9.07;;;;;;;;;;8300703;28;20049;-82
2022/05/09 03:57:21;;;;;;;15.40;8.63;;;;;;;;;;8300991;28;20042;-82
2022/05/09 04:01:24;;;;;;;14.18;8.38;;;;;;;;;;8300908;28;20046;-82
2022/05/09 04:05:30;;;;;;;13.35;8.43;;;;;;;;;;8300273;28;20053;-82
2022/05/09 04:09:33;;;;;;;15.23;8.93;;;;;;;;;;8301025;28;20045;-82
2022/05/09 04:13:35;;;;;;;120.97;42.92;;;;;;;;;;8300807;28;20435;-82
2022/05/09 04:17:37;;;;;;;79.18;33.00;;;;;;;;;;8299801;28;20112;-84
2022/05/09 04:21:41;;;;;;;51.28;23.45;;;;;;;;;;8300549;28;20054;-82
2022/05/09 04:25:44;;;;;;;33.00;18.08;;;;;;;;;;8299709;28;20129;-82
2022/05/09 04:29:48;;;;;;;33.78;16.77;;;;;;;;;;8299921;28;20049;-83
2022/05/09 04:33:52;;;;;;;20.30;13.23;;;;;;;;;;8299765;28;20086;-82
2022/05/09 04:37:56;;;;;;;22.20;13.90;;;;;;;;;;8299571;28;20050;-83
2022/05/09 04:41:59;;;;;;;28.00;13.20;;;;;;;;;;8299390;28;20100;-82
2022/05/09 04:46:03;;;;;;;22.15;13.13;;;;;;;;;;8299824;28;20070;-83
2022/05/09 04:50:07;;;;;;;15.68;8.57;;;;;;;;;;8299226;28;20061;-83
2022/05/09 04:54:11;;;;;;;12.85;7.38;;;;;;;;;;8291456;28;20042;-83
2022/05/09 04:58:15;;;;;;;14.38;6.95;;;;;;;;;;8299303;28;20485;-83
2022/05/09 05:02:18;;;;;;;12.73;6.65;;;;;;;;;;8298682;28;20137;-82
2022/05/09 05:06:20;;;;;;;9.15;5.30;;;;;;;;;;8298210;28;20473;-82
2022/05/09 05:10:26;;;;;;;10.07;5.32;;;;;;;;;;8298657;28;20478;-81
2022/05/09 05:14:29;;;;;;;10.20;5.05;;;;;;;;;;8287392;28;20064;-83
2022/05/09 05:18:32;;;;;;;10.60;5.50;;;;;;;;;;8280874;28;20054;-82
2022/05/09 05:22:37;;;;;;;11.60;5.65;;;;;;;;;;8295371;28;20045;-83
2022/05/09 05:26:42;;;;;;;8.77;5.03;;;;;;;;;;8281818;28;20050;-82
2022/05/09 05:30:45;;;;;;;11.30;5.60;;;;;;;;;;8286783;28;20042;-83
2022/05/09 05:34:48;;;;;;;8.68;5.20;;;;;;;;;;8298046;28;20104;-82
2022/05/09 05:38:52;;;;;;;11.55;5.20;;;;;;;;;;8296205;28;20543;-83
2022/05/09 05:42:56;;;;;;;8.27;4.85;;;;;;;;;;8265307;28;20046;-83
2022/05/09 05:46:59;;;;;;;12.20;5.45;;;;;;;;;;8336002;23;20056;-82
2022/05/09 05:51:02;;;;;;;7.57;4.97;;;;;;;;;;8297728;28;20050;-82
2022/05/09 05:55:05;;;;;;;9.50;5.00;;;;;;;;;;8296546;28;20425;-82
2022/05/09 05:59:09;;;;;;;12.52;5.70;;;;;;;;;;8271889;28;20092;-81
2022/05/09 06:03:12;;;;;;;9.55;5.15;;;;;;;;;;8280279;28;20681;-82
2022/05/09 06:07:16;;;;;;;7.80;5.25;;;;;;;;;;8263271;28;20050;-82
2022/05/09 06:11:18;;;;;;;8.80;5.10;;;;;;;;;;8264885;28;20051;-81
2022/05/09 06:15:28;;;;;;;9.13;4.90;;;;;;;;;;8264750;28;20474;-81
2022/05/09 06:19:30;;;;;;;8.57;4.90;;;;;;;;;;8271350;28;20121;-81
2022/05/09 06:23:34;;;;;;;8.95;5.28;;;;;;;;;;8271618;28;20054;-81
2022/05/09 06:27:36;;;;;;;8.30;4.93;;;;;;;;;;8291074;28;20509;-81
2022/05/09 06:31:42;;;;;;;9.63;4.85;;;;;;;;;;8286473;28;20038;-83
2022/05/09 06:35:46;;;;;;;9.73;4.60;;;;;;;;;;8270608;28;20100;-81
2022/05/09 06:39:49;;;;;;;7.05;4.60;;;;;;;;;;8280088;28;20046;-87
2022/05/09 06:43:53;;;;;;;11.10;5.30;;;;;;;;;;8299906;28;20449;-85
2022/05/09 06:48:00;;;;;;;9.45;4.53;;;;;;;;;;8302818;28;20054;-85
2022/05/09 06:52:03;;;;;;;7.65;4.40;;;;;;;;;;8302831;28;20050;-82
2022/05/09 06:56:06;;;;;;;6.97;4.40;;;;;;;;;;8318484;28;20046;-82
2022/05/09 07:00:14;;;;;;;6.60;4.28;;;;;;;;;;8295534;28;20042;-85
2022/05/09 07:04:20;;;;;;;6.57;4.60;;;;;;;;;;8285395;28;20054;-86
2022/05/09 07:08:23;;;;;;;6.57;4.45;;;;;;;;;;8268640;28;20046;-82
2022/05/09 07:12:26;;;;;;;8.40;4.45;;;;;;;;;;8269836;28;20401;-81
2022/05/09 07:16:28;;;;;;;6.85;4.45;;;;;;;;;;8269259;28;20046;-82
2022/05/09 07:20:34;;;;;;;7.07;4.30;;;;;;;;;;8269789;28;20050;-82
2022/05/09 07:24:37;;;;;;;9.18;4.70;;;;;;;;;;8269467;28;20050;-84
2022/05/09 07:28:42;;;;;;;9.63;4.40;;;;;;;;;;8268293;28;20124;-83
2022/05/09 07:32:45;;;;;;;9.43;4.65;;;;;;;;;;8269060;28;20097;-82
2022/05/09 07:36:49;;;;;;;7.25;4.72;;;;;;;;;;8269324;28;20486;-82
2022/05/09 07:40:52;;;;;;;8.75;4.40;;;;;;;;;;8268901;28;20046;-86
2022/05/09 07:44:56;;;;;;;6.50;4.40;;;;;;;;;;8268702;28;20076;-84
2022/05/09 07:48:59;;;;;;;5.90;3.85;;;;;;;;;;8268031;28;20059;-83
2022/05/09 07:53:09;;;;;;;10.25;3.72;;;;;;;;;;8268171;28;20069;-83
2022/05/09 07:57:15;;;;;;;7.78;4.20;;;;;;;;;;8267626;28;20054;-83
2022/05/09 08:01:19;;;;;;;8.40;3.90;;;;;;;;;;8268044;28;20206;-83
2022/05/09 08:05:23;;;;;;;8.45;3.70;;;;;;;;;;8267822;28;20104;-83
2022/05/09 08:09:31;;;;;;;6.72;3.60;;;;;;;;;;8267516;28;20066;-82
2022/05/09 08:13:36;;;;;;;6.72;3.70;;;;;;;;;;8266018;28;20046;-83
2022/05/09 08:17:40;;;;;;;5.35;3.38;;;;;;;;;;8267166;28;20046;-82
2022/05/09 08:21:47;;;;;;;6.63;3.72;;;;;;;;;;8250599;28;20141;-82
2022/05/09 08:25:53;;;;;;;5.82;3.10;;;;;;;;;;8266682;28;20058;-82
2022/05/09 08:29:56;;;;;;;7.45;3.25;;;;;;;;;;8267114;28;20494;-82
2022/05/09 08:34:00;;;;;;;5.60;3.22;;;;;;;;;;8266699;28;20121;-83
2022/05/09 08:38:04;;;;;;;13.93;3.50;;;;;;;;;;8265711;28;20054;-83
2022/05/09 08:42:18;;;;;;;8.75;3.45;;;;;;;;;;8265655;28;20092;-83
2022/05/09 08:46:32;;;;;;;7.80;3.65;;;;;;;;;;8265757;28;20082;-83
2022/05/09 08:50:53;;;;;;;8.15;3.60;;;;;;;;;;8266279;28;20422;-83
2022/05/09 08:54:56;;;;;;;7.55;3.33;;;;;;;;;;8265488;28;20050;-83
2022/05/09 08:59:05;;;;;;;5.45;3.35;;;;;;;;;;8266203;28;20053;-83
2022/05/09 09:03:17;;;;;;;9.40;3.78;;;;;;;;;;8265538;28;20049;-84
2022/05/09 09:07:52;;;;;;;7.40;3.30;;;;;;;;;;8296946;28;20081;-83
2022/05/09 09:12:03;;;;;;;6.43;3.05;;;;;;;;;;8297753;28;20149;-83
2022/05/09 09:16:27;;;;;;;8.97;3.67;;;;;;;;;;8297966;28;20564;-84
2022/05/09 09:20:37;;;;;;;6.15;3.28;;;;;;;;;;8265095;28;20050;-82
2022/05/09 09:24:59;;;;;;;6.88;3.42;;;;;;;;;;8264049;28;20039;-82
2022/05/09 09:29:09;;;;;;;5.80;3.10;;;;;;;;;;8265419;28;20473;-82
2022/05/09 09:33:19;;;;;;;5.75;3.30;;;;;;;;;;8265799;28;20478;-82
2022/05/09 09:37:37;;;;;;;9.02;4.50;;;;;;;;;;8265050;28;20046;-83
2022/05/09 09:41:40;;;;;;;7.20;3.35;;;;;;;;;;8265418;28;20069;-82
2022/05/09 09:45:49;;;;;;;7.55;2.90;;;;;;;;;;8264705;28;20062;-82
2022/05/09 09:50:13;;;;;;;6.18;3.10;;;;;;;;;;8266019;28;20414;-84
2022/05/09 09:54:20;;;;;;;8.60;3.03;;;;;;;;;;8278604;28;20053;-83
2022/05/09 09:58:25;;;;;;;6.40;3.15;;;;;;;;;;8304160;28;20060;-84
2022/05/09 10:02:30;;;;;;;8.95;3.22;;;;;;;;;;8303865;28;20085;-82
2022/05/09 10:06:35;;;;;;;4.95;2.92;;;;;;;;;;8304617;28;20054;-82
2022/05/09 10:10:55;;;;;;;7.28;2.58;;;;;;;;;;8303990;28;20064;-82
2022/05/09 10:14:59;;;;;;;4.57;2.50;;;;;;;;;;8304062;28;20049;-82
2022/05/09 10:19:04;;;;;;;5.70;2.83;;;;;;;;;;8303592;28;20053;-82
2022/05/09 10:27:40;;;;;;;5.13;2.67;;;;;;;;;;8286885;28;20125;-83
2022/05/09 10:31:47;;;;;;;5.28;2.88;;;;;;;;;;8300986;28;20125;-82
2022/05/09 10:35:55;;;;;;;6.45;2.67;;;;;;;;;;8300332;28;20062;-81
2022/05/09 10:40:07;;;;;;;6.72;2.50;;;;;;;;;;8308912;28;20532;-81
2022/05/09 10:44:13;;;;;;;;;;;;;;;;;;8301461;28;20445;-81
2022/05/09 10:48:20;;;;;;;3.50;2.15;;;;;;;;;;8302160;28;19968;-81
2022/05/09 10:52:35;;;;;;;6.05;2.40;;;;;;;;;;8302899;28;20053;-81
2022/05/09 10:56:44;;;;;;;5.15;2.35;;;;;;;;;;8302433;28;20053;-82
2022/05/09 11:00:52;;;;;;;5.43;2.55;;;;;;;;;;8302299;28;20050;-82
2022/05/09 11:04:56;;;;;;;4.28;2.30;;;;;;;;;;8324956;28;20528;-81
2022/05/09 11:09:19;;;;;;;4.05;2.20;;;;;;;;;;8334949;28;20133;-81
2022/05/09 11:13:30;;;;;;;4.88;2.40;;;;;;;;;;8322041;28;20046;-81
2022/05/09 11:17:54;;;;;;;4.45;2.33;;;;;;;;;;8301820;28;20079;-83
2022/05/09 11:22:03;;;;;;;6.63;3.00;;;;;;;;;;8283132;28;20054;-82
2022/05/09 11:26:23;;;;;;;4.55;2.60;;;;;;;;;;8266752;28;20050;-80
2022/05/09 11:30:34;;;;;;;3.92;2.15;;;;;;;;;;8268497;28;20056;-81
2022/05/09 11:34:51;;;;;;;5.70;2.17;;;;;;;;;;8268401;28;20054;-81
2022/05/09 11:39:03;;;;;;;5.13;3.03;;;;;;;;;;8267868;28;20042;-81
2022/05/09 11:43:32;;;;;;;7.10;2.40;;;;;;;;;;8268221;28;20061;-82
2022/05/09 11:47:42;;;;;;;7.88;2.13;;;;;;;;;;8268462;28;20109;-82
2022/05/09 11:51:49;;;;;;;5.32;2.40;;;;;;;;;;8268875;28;20054;-81
2022/05/09 11:55:53;;;;;;;3.72;2.40;;;;;;;;;;8268319;28;20044;-82
2022/05/09 11:59:58;;;;;;;8.68;2.30;;;;;;;;;;8268194;28;20054;-83
2022/05/09 12:04:03;;;;;;;4.88;2.10;;;;;;;;;;8267917;28;20081;-81
2022/05/09 12:08:13;;;;;;;4.70;2.58;;;;;;;;;;8268026;28;20061;-81
2022/05/09 12:12:46;;;;;;;16.27;4.33;;;;;;;;;;8267814;28;20046;-81
2022/05/09 12:16:54;;;;;;;4.65;2.40;;;;;;;;;;8265774;28;20218;-81
2022/05/09 12:21:18;;;;;;;6.15;2.35;;;;;;;;;;8270715;28;20050;-81
2022/05/09 12:26:03;;;;;;;13.35;3.03;;;;;;;;;;8260694;28;20186;-81
2022/05/09 12:30:13;;;;;;;4.65;2.05;;;;;;;;;;8266904;28;20081;-82
2022/05/09 12:34:18;;;;;;;2.35;1.90;;;;;;;;;;8259785;28;20077;-81
2022/05/09 12:38:29;;;;;;;5.25;2.28;;;;;;;;;;8266792;28;20097;-82
2022/05/09 12:42:44;;;;;;;5.55;2.50;;;;;;;;;;8266513;28;20050;-81
2022/05/09 12:46:53;;;;;;;3.95;2.17;;;;;;;;;;8266264;28;20521;-81
2022/05/09 12:51:04;;;;;;;3.78;1.77;;;;;;;;;;8266559;28;20046;-81
2022/05/09 12:59:47;;;;;;;3.95;2.10;;;;;;;;;;8264780;28;20053;-82
2022/05/09 13:03:53;;;;;;;6.35;2.25;;;;;;;;;;8286734;28;20045;-83
2022/05/09 13:08:00;;;;;;;4.35;2.20;;;;;;;;;;8277327;28;20394;-81
2022/05/09 13:12:08;;;;;;;4.00;1.85;;;;;;;;;;8279532;28;20068;-81
2022/05/09 13:16:19;;;;;;;6.70;2.75;;;;;;;;;;8297384;28;20045;-82
2022/05/09 13:20:24;;;;;;;7.63;3.80;;;;;;;;;;8291575;28;20132;-82
2022/05/09 13:24:30;;;;;;;5.25;1.95;;;;;;;;;;8292937;28;20128;-86
2022/05/09 13:28:46;;;;;;;6.22;2.35;;;;;;;;;;8296605;28;20493;-82
2022/05/09 13:32:54;;;;;;;3.45;1.98;;;;;;;;;;8293610;28;20482;-81
2022/05/09 13:36:58;;;;;;;7.03;2.05;;;;;;;;;;8296790;28;20045;-82
2022/05/09 13:41:05;;;;;;;3.05;2.05;;;;;;;;;;8297348;28;20045;-81
2022/05/09 13:45:18;;;;;;;5.47;2.20;;;;;;;;;;8297805;28;20057;-81
2022/05/09 13:49:22;;;;;;;7.75;2.60;;;;;;;;;;8297953;28;20046;-82
2022/05/09 13:53:29;;;;;;;5.95;2.22;;;;;;;;;;8297624;28;20560;-82
2022/05/09 13:57:36;;;;;;;4.32;2.38;;;;;;;;;;8297758;28;20042;-82
2022/05/09 14:01:46;;;;;;;5.95;2.33;;;;;;;;;;8297665;28;20046;-81
2022/05/09 14:05:51;;;;;;;4.72;2.15;;;;;;;;;;8297517;28;20053;-82
2022/05/09 14:09:55;;;;;;;4.90;1.95;;;;;;;;;;8288714;28;20095;-81
2022/05/09 14:13:58;;;;;;;5.55;2.13;;;;;;;;;;8274745;28;20042;-83
2022/05/09 14:18:09;;;;;;;5.20;1.95;;;;;;;;;;8264968;28;20038;-85
2022/05/09 14:22:15;;;;;;;7.28;2.30;;;;;;;;;;8286099;28;20052;-84
2022/05/09 14:30:42;;;;;;;6.38;2.92;;;;;;;;;;8297651;28;20073;-82
2022/05/09 14:34:56;;;;;;;4.35;2.40;;;;;;;;;;8297769;28;20095;-83
2022/05/09 14:39:01;;;;;;;5.35;2.10;;;;;;;;;;8301233;28;20093;-82
2022/05/09 14:43:08;;;;;;;3.00;1.73;;;;;;;;;;8303711;28;20049;-83
2022/05/09 14:47:21;;;;;;;4.03;2.00;;;;;;;;;;8302748;28;20164;-82
2022/05/09 14:51:26;;;;;;;3.78;2.10;;;;;;;;;;8303128;28;20045;-83
2022/05/09 15:00:06;;;;;;;3.00;1.92;;;;;;;;;;8290808;28;20042;-83
2022/05/09 15:04:09;;;;;;;4.07;2.17;;;;;;;;;;8275037;28;20125;-84
2022/05/09 15:08:14;;;;;;;6.22;2.38;;;;;;;;;;8301956;28;20052;-83
2022/05/09 15:12:22;;;;;;;4.85;1.98;;;;;;;;;;8302282;28;20054;-83
2022/05/09 15:16:29;;;;;;;3.38;2.10;;;;;;;;;;8302154;28;20048;-83
2022/05/09 15:20:33;;;;;;;2.75;1.70;;;;;;;;;;8302436;28;20136;-83
2022/05/09 15:24:40;;;;;;;3.53;1.90;;;;;;;;;;8301916;28;20426;-82
2022/05/09 15:28:48;;;;;;;3.97;1.98;;;;;;;;;;8284327;28;20141;-82
2022/05/09 15:32:53;;;;;;;3.50;1.77;;;;;;;;;;8302259;28;20056;-82
2022/05/09 15:36:56;;;;;;;5.05;2.92;;;;;;;;;;8280962;28;20450;-83
2022/05/09 15:41:05;;;;;;;3.53;2.08;;;;;;;;;;8268591;28;20050;-83
2022/05/09 15:45:18;;;;;;;3.45;2.00;;;;;;;;;;8246400;28;20088;-83
2022/05/09 15:49:32;;;;;;;4.25;2.10;;;;;;;;;;8242184;28;20042;-83
2022/05/09 15:53:38;;;;;;;3.17;1.98;;;;;;;;;;8267748;28;20058;-83
2022/05/09 15:57:45;;;;;;;8.18;6.00;;;;;;;;;;8267942;28;20474;-82
2022/05/09 16:01:51;;;;;;;9.10;3.85;;;;;;;;;;8267554;28;20105;-83
2022/05/09 16:14:53;;;;;;;4.43;1.60;;;;;;;;;;8267308;28;20045;-83
2022/05/09 16:19:04;;;;;;;11.38;6.13;;;;;;;;;;8267433;28;20410;-82
2022/05/09 16:23:12;;;;;;;3.28;2.05;;;;;;;;;;8266869;28;20046;-82
2022/05/09 16:27:29;;;;;;;4.60;2.92;;;;;;;;;;8267162;28;20050;-83
2022/05/09 16:31:34;;;;;;;4.82;1.67;;;;;;;;;;8266252;28;20047;-81
2022/05/09 16:35:37;;;;;;;5.53;2.53;;;;;;;;;;8254721;28;20141;-82
2022/05/09 16:39:43;;;;;;;2.45;1.70;;;;;;;;;;8263199;28;20101;-83
2022/05/09 16:43:46;;;;;;;4.68;1.70;;;;;;;;;;8236367;28;20042;-82
2022/05/09 16:47:52;;;;;;;4.30;1.73;;;;;;;;;;8279732;28;20057;-83
2022/05/09 16:51:56;;;;;;;3.85;1.80;;;;;;;;;;8280000;28;20050;-82
2022/05/09 16:56:02;;;;;;;4.50;2.30;;;;;;;;;;8283848;28;20042;-81
2022/05/09 17:00:07;;;;;;;4.97;3.20;;;;;;;;;;8297847;28;20478;-81
2022/05/09 17:04:12;;;;;;;4.20;2.22;;;;;;;;;;8291365;28;20532;-82
2022/05/09 17:08:15;;;;;;;11.25;5.15;;;;;;;;;;8287928;28;20405;-81
2022/05/09 17:12:23;;;;;;;3.95;2.20;;;;;;;;;;8278000;28;20111;-82
2022/05/09 17:16:26;;;;;;;10.38;3.97;;;;;;;;;;8288393;28;20045;-81
2022/05/09 17:20:34;;;;;;;7.70;2.10;;;;;;;;;;8293933;28;20068;-81
2022/05/09 17:24:37;;;;;;;7.55;2.42;;;;;;;;;;8287937;28;20133;-82
2022/05/09 17:28:44;;;;;;;7.88;3.42;;;;;;;;;;8278685;28;20055;-82
2022/05/09 17:37:21;;;;;;;6.53;2.47;;;;;;;;;;8261032;28;20046;-82
2022/05/09 17:41:26;;;;;;;4.15;1.60;;;;;;;;;;8268566;28;20104;-81
2022/05/09 17:45:31;;;;;;;5.75;1.80;;;;;;;;;;8283488;28;20054;-80
2022/05/09 17:49:34;;;;;;;3.33;1.67;;;;;;;;;;8279833;28;20070;-81
2022/05/09 17:53:41;;;;;;;2.15;1.50;;;;;;;;;;8276663;28;20054;-83
2022/05/09 17:57:48;;;;;;;3.67;1.70;;;;;;;;;;8268124;28;20478;-83
2022/05/09 18:02:55;;;;;;;4.15;1.83;;;;;;;;;;8282271;28;20057;-82
2022/05/09 18:07:05;;;;;;;8.68;3.90;;;;;;;;;;8277811;28;20406;-82
2022/05/09 18:15:45;;;;;;;5.97;2.72;;;;;;;;;;8272280;28;20053;-82
2022/05/09 18:19:55;;;;;;;7.35;3.35;;;;;;;;;;8285706;28;20449;-82
2022/05/09 18:24:08;;;;;;;7.53;3.55;;;;;;;;;;8285718;28;20618;-82
2022/05/09 18:28:30;;;;;;;6.28;4.50;;;;;;;;;;8286262;28;20053;-82
2022/05/09 18:32:35;;;;;;;7.18;4.18;;;;;;;;;;8270393;28;20052;-82
2022/05/09 18:36:52;;;;;;;6.93;4.80;;;;;;;;;;8284461;28;20047;-81
2022/05/09 18:41:07;;;;;;;3.50;2.20;;;;;;;;;;8271738;28;20100;-81
2022/05/09 18:45:17;;;;;;;3.80;2.28;;;;;;;;;;8284166;28;20057;-82
2022/05/09 18:53:46;;;;;;;4.90;2.20;;;;;;;;;;8284153;28;20046;-81
2022/05/09 18:57:54;;;;;;;6.53;3.05;;;;;;;;;;8285191;28;20058;-82
2022/05/09 19:02:00;;;;;;;5.72;3.08;;;;;;;;;;8286633;28;20121;-82
2022/05/09 19:06:06;;;;;;;7.03;4.25;;;;;;;;;;8283456;28;20066;-82
2022/05/09 19:10:14;;;;;;;7.47;3.38;;;;;;;;;;8275243;28;20097;-82
2022/05/09 19:14:22;;;;;;;7.40;3.60;;;;;;;;;;8283452;28;20049;-82
2022/05/09 19:18:28;;;;;;;5.78;2.92;;;;;;;;;;8290757;28;20125;-82
2022/05/09 19:22:32;;;;;;;5.60;2.67;;;;;;;;;;8283315;28;20042;-81
2022/05/09 19:26:38;;;;;;;5.32;2.90;;;;;;;;;;8301782;28;20053;-82
2022/05/09 19:30:42;;;;;;;4.88;2.60;;;;;;;;;;8276441;28;20050;-81
2022/05/09 19:34:47;;;;;;;3.85;2.00;;;;;;;;;;8269188;28;20388;-81
2022/05/09 19:38:51;;;;;;;5.80;2.58;;;;;;;;;;8269638;28;20069;-81
2022/05/09 19:43:01;;;;;;;7.05;2.78;;;;;;;;;;8269091;28;20150;-81
2022/05/09 19:47:10;;;;;;;7.47;3.33;;;;;;;;;;8267783;28;20498;-81
2022/05/09 19:51:15;;;;;;;7.60;3.00;;;;;;;;;;8267892;28;20058;-82
2022/05/09 19:55:19;;;;;;;5.05;2.88;;;;;;;;;;8290720;28;20125;-81
2022/05/09 19:59:22;;;;;;;6.40;2.80;;;;;;;;;;8275043;28;20053;-81
2022/05/09 20:03:27;;;;;;;5.78;2.33;;;;;;;;;;8267969;28;20050;-81
2022/05/09 20:07:32;;;;;;;5.28;2.30;;;;;;;;;;8268106;28;20047;-82
2022/05/09 20:11:36;;;;;;;5.35;2.10;;;;;;;;;;8268227;28;20133;-81
2022/05/09 20:15:39;;;;;;;4.38;2.53;;;;;;;;;;8268105;28;20521;-82
2022/05/09 20:19:42;;;;;;;8.70;2.80;;;;;;;;;;8268272;28;20129;-81
2022/05/09 20:23:53;;;;;;;6.07;2.30;;;;;;;;;;8267898;28;20042;-81
2022/05/09 20:32:31;;;;;;;5.00;2.20;;;;;;;;;;8168892;28;20073;-81
2022/05/09 20:36:36;;;;;;;3.50;2.25;;;;;;;;;;8267322;28;20424;-81
2022/05/09 20:40:41;;;;;;;5.93;2.25;;;;;;;;;;8267471;28;20493;-81
2022/05/09 20:44:45;;;;;;;6.00;2.20;;;;;;;;;;8266926;28;20490;-81
2022/05/09 20:48:48;;;;;;;6.45;2.38;;;;;;;;;;8266836;28;20100;-81
2022/05/09 20:52:51;;;;;;;4.47;2.60;;;;;;;;;;8267049;28;20530;-81
2022/05/09 20:56:56;;;;;;;7.13;2.45;;;;;;;;;;8266613;28;20097;-81
2022/05/09 21:00:59;;;;;;;4.13;2.35;;;;;;;;;;8266566;28;20050;-81
2022/05/09 21:05:02;;;;;;;5.43;2.50;;;;;;;;;;8266345;28;20047;-81
2022/05/09 21:09:07;;;;;;;4.88;2.50;;;;;;;;;;8266420;28;20051;-81
2022/05/09 21:13:11;;;;;;;5.43;2.97;;;;;;;;;;8267073;28;20054;-81
2022/05/09 21:17:14;;;;;;;10.80;3.45;;;;;;;;;;8266981;28;20130;-81
2022/05/09 21:21:17;;;;;;;7.85;3.45;;;;;;;;;;8266815;28;20467;-81
2022/05/09 21:25:27;;;;;;;7.80;3.10;;;;;;;;;;8266744;28;20578;-81
2022/05/09 21:29:37;;;;;;;5.68;3.17;;;;;;;;;;8266383;28;20050;-81
2022/05/09 21:33:40;;;;;;;6.22;3.00;;;;;;;;;;8266086;28;20065;-81
2022/05/09 21:37:43;;;;;;;6.00;2.83;;;;;;;;;;8265958;28;20088;-80
2022/05/09 21:41:48;;;;;;;5.65;2.53;;;;;;;;;;8265676;28;20380;-81
2022/05/09 21:45:52;;;;;;;5.43;2.90;;;;;;;;;;8265400;28;20502;-81
2022/05/09 21:49:55;;;;;;;6.10;3.40;;;;;;;;;;8265457;28;20057;-80
2022/05/09 21:53:59;;;;;;;8.50;3.15;;;;;;;;;;8265519;28;20046;-80
2022/05/09 21:58:03;;;;;;;6.28;3.72;;;;;;;;;;8265566;28;20058;-81
2022/05/09 22:02:08;;;;;;;5.25;3.10;;;;;;;;;;8265517;28;20046;-81
2022/05/09 22:06:18;;;;;;;4.90;2.70;;;;;;;;;;8265454;28;20129;-80
2022/05/09 22:10:22;;;;;;;6.63;2.90;;;;;;;;;;8265886;28;20483;-81
2022/05/09 22:14:27;;;;;;;6.10;3.03;;;;;;;;;;8265842;28;20255;-81
2022/05/09 22:18:31;;;;;;;6.55;3.03;;;;;;;;;;8265172;28;20070;-80
2022/05/09 22:22:34;;;;;;;6.63;2.95;;;;;;;;;;8265579;28;20050;-80
2022/05/09 22:26:37;;;;;;;7.25;2.83;;;;;;;;;;8265060;28;20141;-80
2022/05/09 22:30:40;;;;;;;5.00;3.10;;;;;;;;;;8265534;28;20049;-80
2022/05/09 22:34:46;;;;;;;7.72;3.92;;;;;;;;;;8264852;28;20046;-81
2022/05/09 22:38:48;;;;;;;10.73;3.88;;;;;;;;;;8265195;28;20582;-81
2022/05/09 22:42:52;;;;;;;10.77;4.68;;;;;;;;;;8273272;28;20046;-81
2022/05/09 22:46:56;;;;;;;5.82;3.33;;;;;;;;;;8264825;28;20059;-81
2022/05/09 22:51:00;;;;;;;6.93;3.08;;;;;;;;;;8264806;28;20053;-81
2022/05/09 22:55:02;;;;;;;9.00;3.25;;;;;;;;;;8289251;28;20054;-81
2022/05/09 22:59:06;;;;;;;6.57;3.83;;;;;;;;;;8286294;28;20406;-81
2022/05/09 23:03:09;;;;;;;7.15;3.28;;;;;;;;;;8279476;28;20053;-81
2022/05/09 23:07:13;;;;;;;5.75;3.00;;;;;;;;;;8302454;28;20429;-81
2022/05/09 23:11:16;;;;;;;6.40;2.90;;;;;;;;;;8302903;28;20046;-81
2022/05/09 23:15:19;;;;;;;6.13;2.80;;;;;;;;;;8302727;28;20050;-81
2022/05/09 23:19:22;;;;;;;6.82;3.38;;;;;;;;;;8298271;28;20046;-81
2022/05/09 23:23:26;;;;;;;6.05;3.13;;;;;;;;;;8280594;28;20133;-81
2022/05/09 23:27:30;;;;;;;6.43;3.22;;;;;;;;;;8277946;28;20050;-81
2022/05/09 23:31:33;;;;;;;5.57;2.95;;;;;;;;;;8301786;28;20054;-81
2022/05/09 23:35:36;;;;;;;9.05;3.45;;;;;;;;;;8292797;28;20039;-81
2022/05/09 23:39:39;;;;;;;4.60;2.83;;;;;;;;;;8292171;28;20066;-82
2022/05/09 23:43:46;;;;;;;5.28;2.78;;;;;;;;;;8289913;28;20050;-81
2022/05/09 23:47:49;;;;;;;5.72;3.25;;;;;;;;;;8286776;28;20054;-81
2022/05/09 23:51:51;;;;;;;5.95;3.10;;;;;;;;;;8295253;28;20046;-83
2022/05/09 23:55:55;;;;;;;7.70;3.47;;;;;;;;;;8270067;28;20042;-81
2022/05/09 23:59:58;;;;;;;7.20;3.35;;;;;;;;;;8267963;28;20046;-81
